<?xml version='1.0' encoding='UTF-8'?>
<gpx version="1.1" creator="https://www.komoot.de" xmlns="http://www.topografix.com/GPX/1/1" xmlns:xsi="http://www.w3.org/2001/XMLSchema-instance" xsi:schemaLocation="http://www.topografix.com/GPX/1/1 http://www.topografix.com/GPX/1/1/gpx.xsd">
  <metadata>
    <name>ADFC-Ri-2026-08-18: zum Alberssee</name>
    <author>
      <link href="https://www.komoot.de">
        <text>komoot</text>
        <type>text/html</type>
      </link>
    </author>
  </metadata>
  <trk>
    <name>ADFC-Ri-2026-08-18: zum Alberssee</name>
    <type>e_touring_bicycle</type>
    <trkseg>
      <trkpt lat="51.818285" lon="8.430975">
        <ele>78.550013</ele>
        <time>2026-08-11T19:55:33.744Z</time>
      </trkpt>
      <trkpt lat="51.818226" lon="8.431390">
        <ele>78.550013</ele>
        <time>2026-08-11T19:55:39.404Z</time>
      </trkpt>
      <trkpt lat="51.818046" lon="8.432598">
        <ele>78.570557</ele>
        <time>2026-08-11T19:55:55.978Z</time>
      </trkpt>
      <trkpt lat="51.817926" lon="8.433471">
        <ele>78.656573</ele>
        <time>2026-08-11T19:56:07.807Z</time>
      </trkpt>
      <trkpt lat="51.817788" lon="8.434474">
        <ele>78.755402</ele>
        <time>2026-08-11T19:56:21.385Z</time>
      </trkpt>
      <trkpt lat="51.817486" lon="8.436691">
        <ele>78.848332</ele>
        <time>2026-08-11T19:56:51.239Z</time>
      </trkpt>
      <trkpt lat="51.817482" lon="8.436827">
        <ele>78.850012</ele>
        <time>2026-08-11T19:56:53.044Z</time>
      </trkpt>
      <trkpt lat="51.816955" lon="8.440479">
        <ele>78.838661</ele>
        <time>2026-08-11T19:57:41.666Z</time>
      </trkpt>
      <trkpt lat="51.816358" lon="8.444591">
        <ele>78.925410</ele>
        <time>2026-08-11T19:58:36.976Z</time>
      </trkpt>
      <trkpt lat="51.816256" lon="8.444833">
        <ele>78.915284</ele>
        <time>2026-08-11T19:58:40.792Z</time>
      </trkpt>
      <trkpt lat="51.816200" lon="8.445064">
        <ele>78.906705</ele>
        <time>2026-08-11T19:58:44.019Z</time>
      </trkpt>
      <trkpt lat="51.816188" lon="8.445319">
        <ele>78.897863</ele>
        <time>2026-08-11T19:58:47.349Z</time>
      </trkpt>
      <trkpt lat="51.816206" lon="8.445638">
        <ele>78.886787</ele>
        <time>2026-08-11T19:58:51.506Z</time>
      </trkpt>
      <trkpt lat="51.815736" lon="8.448884">
        <ele>78.706251</ele>
        <time>2026-08-11T19:59:34.458Z</time>
      </trkpt>
      <trkpt lat="51.815727" lon="8.448950">
        <ele>78.702090</ele>
        <time>2026-08-11T19:59:35.337Z</time>
      </trkpt>
      <trkpt lat="51.815710" lon="8.449077">
        <ele>78.694091</ele>
        <time>2026-08-11T19:59:37.020Z</time>
      </trkpt>
      <trkpt lat="51.815630" lon="8.449067">
        <ele>78.686101</ele>
        <time>2026-08-11T19:59:38.693Z</time>
      </trkpt>
      <trkpt lat="51.814779" lon="8.448944">
        <ele>78.603721</ele>
        <time>2026-08-11T19:59:56.515Z</time>
      </trkpt>
      <trkpt lat="51.814426" lon="8.448943">
        <ele>78.569834</ele>
        <time>2026-08-11T20:00:03.883Z</time>
      </trkpt>
      <trkpt lat="51.813500" lon="8.449148">
        <ele>78.511046</ele>
        <time>2026-08-11T20:00:23.455Z</time>
      </trkpt>
      <trkpt lat="51.812986" lon="8.449253">
        <ele>78.527437</ele>
        <time>2026-08-11T20:00:34.331Z</time>
      </trkpt>
      <trkpt lat="51.812848" lon="8.449199">
        <ele>78.531929</ele>
        <time>2026-08-11T20:00:37.352Z</time>
      </trkpt>
      <trkpt lat="51.812613" lon="8.448994">
        <ele>78.540376</ele>
        <time>2026-08-11T20:00:43.051Z</time>
      </trkpt>
      <trkpt lat="51.812536" lon="8.449002">
        <ele>78.542817</ele>
        <time>2026-08-11T20:00:44.706Z</time>
      </trkpt>
      <trkpt lat="51.812530" lon="8.448821">
        <ele>78.546363</ele>
        <time>2026-08-11T20:00:47.110Z</time>
      </trkpt>
      <trkpt lat="51.812367" lon="8.448848">
        <ele>78.551546</ele>
        <time>2026-08-11T20:00:50.625Z</time>
      </trkpt>
      <trkpt lat="51.811530" lon="8.448995">
        <ele>78.447313</ele>
        <time>2026-08-11T20:01:08.345Z</time>
      </trkpt>
      <trkpt lat="51.811210" lon="8.449041">
        <ele>78.383164</ele>
        <time>2026-08-11T20:01:15.038Z</time>
      </trkpt>
      <trkpt lat="51.809716" lon="8.448553">
        <ele>78.033083</ele>
        <time>2026-08-11T20:01:46.201Z</time>
      </trkpt>
      <trkpt lat="51.809409" lon="8.448458">
        <ele>77.947331</ele>
        <time>2026-08-11T20:01:52.610Z</time>
      </trkpt>
      <trkpt lat="51.808983" lon="8.448478">
        <ele>77.830409</ele>
        <time>2026-08-11T20:02:01.372Z</time>
      </trkpt>
      <trkpt lat="51.808654" lon="8.448538">
        <ele>77.739577</ele>
        <time>2026-08-11T20:02:08.223Z</time>
      </trkpt>
      <trkpt lat="51.808074" lon="8.448733">
        <ele>77.690389</ele>
        <time>2026-08-11T20:02:20.564Z</time>
      </trkpt>
      <trkpt lat="51.807402" lon="8.448786">
        <ele>77.665958</ele>
        <time>2026-08-11T20:02:34.695Z</time>
      </trkpt>
      <trkpt lat="51.807102" lon="8.448884">
        <ele>77.654845</ele>
        <time>2026-08-11T20:02:41.157Z</time>
      </trkpt>
      <trkpt lat="51.806945" lon="8.448978">
        <ele>77.648766</ele>
        <time>2026-08-11T20:02:44.705Z</time>
      </trkpt>
      <trkpt lat="51.806879" lon="8.449060">
        <ele>77.645743</ele>
        <time>2026-08-11T20:02:46.486Z</time>
      </trkpt>
      <trkpt lat="51.806759" lon="8.449301">
        <ele>77.658866</ele>
        <time>2026-08-11T20:02:50.555Z</time>
      </trkpt>
      <trkpt lat="51.806678" lon="8.449662">
        <ele>77.698723</ele>
        <time>2026-08-11T20:02:55.607Z</time>
      </trkpt>
      <trkpt lat="51.806628" lon="8.450111">
        <ele>77.746072</ele>
        <time>2026-08-11T20:03:01.632Z</time>
      </trkpt>
      <trkpt lat="51.806555" lon="8.451715">
        <ele>77.912993</ele>
        <time>2026-08-11T20:03:23.003Z</time>
      </trkpt>
      <trkpt lat="51.806506" lon="8.453110">
        <ele>78.054878</ele>
        <time>2026-08-11T20:03:41.526Z</time>
      </trkpt>
      <trkpt lat="51.806463" lon="8.453333">
        <ele>78.078455</ele>
        <time>2026-08-11T20:03:44.623Z</time>
      </trkpt>
      <trkpt lat="51.806373" lon="8.453434">
        <ele>78.096337</ele>
        <time>2026-08-11T20:03:46.972Z</time>
      </trkpt>
      <trkpt lat="51.804580" lon="8.454387">
        <ele>78.436055</ele>
        <time>2026-08-11T20:04:27.241Z</time>
      </trkpt>
      <trkpt lat="51.803621" lon="8.454890">
        <ele>78.691731</ele>
        <time>2026-08-11T20:04:48.921Z</time>
      </trkpt>
      <trkpt lat="51.803004" lon="8.455228">
        <ele>78.987889</ele>
        <time>2026-08-11T20:05:03.128Z</time>
      </trkpt>
      <trkpt lat="51.803735" lon="8.456789">
        <ele>79.474238</ele>
        <time>2026-08-11T20:05:29.841Z</time>
      </trkpt>
      <trkpt lat="51.804067" lon="8.457612">
        <ele>79.617715</ele>
        <time>2026-08-11T20:05:43.014Z</time>
      </trkpt>
      <trkpt lat="51.804302" lon="8.458216">
        <ele>79.721910</ele>
        <time>2026-08-11T20:05:52.417Z</time>
      </trkpt>
      <trkpt lat="51.804328" lon="8.458731">
        <ele>79.797355</ele>
        <time>2026-08-11T20:05:59.132Z</time>
      </trkpt>
      <trkpt lat="51.804213" lon="8.462055">
        <ele>79.471039</ele>
        <time>2026-08-11T20:06:41.704Z</time>
      </trkpt>
      <trkpt lat="51.804359" lon="8.464566">
        <ele>79.069096</ele>
        <time>2026-08-11T20:07:13.821Z</time>
      </trkpt>
      <trkpt lat="51.804342" lon="8.464643">
        <ele>79.056066</ele>
        <time>2026-08-11T20:07:14.842Z</time>
      </trkpt>
      <trkpt lat="51.804226" lon="8.464771">
        <ele>79.039011</ele>
        <time>2026-08-11T20:07:17.718Z</time>
      </trkpt>
      <trkpt lat="51.803122" lon="8.465610">
        <ele>79.035681</ele>
        <time>2026-08-11T20:07:43.204Z</time>
      </trkpt>
      <trkpt lat="51.802421" lon="8.466143">
        <ele>79.099475</ele>
        <time>2026-08-11T20:07:59.908Z</time>
      </trkpt>
      <trkpt lat="51.802211" lon="8.466299">
        <ele>79.155078</ele>
        <time>2026-08-11T20:08:04.930Z</time>
      </trkpt>
      <trkpt lat="51.802015" lon="8.466506">
        <ele>79.211403</ele>
        <time>2026-08-11T20:08:10.222Z</time>
      </trkpt>
      <trkpt lat="51.801375" lon="8.466842">
        <ele>79.373303</ele>
        <time>2026-08-11T20:08:24.722Z</time>
      </trkpt>
      <trkpt lat="51.801119" lon="8.466896">
        <ele>79.435420</ele>
        <time>2026-08-11T20:08:30.217Z</time>
      </trkpt>
      <trkpt lat="51.798472" lon="8.466335">
        <ele>80.138706</ele>
        <time>2026-08-11T20:09:27.907Z</time>
      </trkpt>
      <trkpt lat="51.798063" lon="8.466246">
        <ele>80.228391</ele>
        <time>2026-08-11T20:09:36.775Z</time>
      </trkpt>
      <trkpt lat="51.796248" lon="8.466212">
        <ele>80.452634</ele>
        <time>2026-08-11T20:10:15.353Z</time>
      </trkpt>
      <trkpt lat="51.796050" lon="8.466297">
        <ele>80.467314</ele>
        <time>2026-08-11T20:10:19.684Z</time>
      </trkpt>
      <trkpt lat="51.796111" lon="8.467123">
        <ele>80.497893</ele>
        <time>2026-08-11T20:10:30.564Z</time>
      </trkpt>
      <trkpt lat="51.796062" lon="8.467189">
        <ele>80.497973</ele>
        <time>2026-08-11T20:10:31.911Z</time>
      </trkpt>
      <trkpt lat="51.795938" lon="8.467275">
        <ele>80.498141</ele>
        <time>2026-08-11T20:10:34.775Z</time>
      </trkpt>
      <trkpt lat="51.795716" lon="8.467588">
        <ele>80.498509</ele>
        <time>2026-08-11T20:10:40.997Z</time>
      </trkpt>
      <trkpt lat="51.795845" lon="8.468511">
        <ele>80.499240</ele>
        <time>2026-08-11T20:10:53.312Z</time>
      </trkpt>
      <trkpt lat="51.795837" lon="8.469074">
        <ele>80.499675</ele>
        <time>2026-08-11T20:11:00.598Z</time>
      </trkpt>
      <trkpt lat="51.795643" lon="8.470923">
        <ele>80.572434</ele>
        <time>2026-08-11T20:11:25.025Z</time>
      </trkpt>
      <trkpt lat="51.795495" lon="8.472690">
        <ele>80.684015</ele>
        <time>2026-08-11T20:11:48.607Z</time>
      </trkpt>
      <trkpt lat="51.795396" lon="8.473342">
        <ele>80.765331</ele>
        <time>2026-08-11T20:11:57.496Z</time>
      </trkpt>
      <trkpt lat="51.795118" lon="8.474366">
        <ele>80.900782</ele>
        <time>2026-08-11T20:12:12.379Z</time>
      </trkpt>
      <trkpt lat="51.795136" lon="8.474591">
        <ele>80.928261</ele>
        <time>2026-08-11T20:12:15.415Z</time>
      </trkpt>
      <trkpt lat="51.795349" lon="8.475152">
        <ele>81.010340</ele>
        <time>2026-08-11T20:12:24.128Z</time>
      </trkpt>
      <trkpt lat="51.794672" lon="8.476667">
        <ele>81.309793</ele>
        <time>2026-08-11T20:12:49.099Z</time>
      </trkpt>
      <trkpt lat="51.794244" lon="8.477882">
        <ele>81.474798</ele>
        <time>2026-08-11T20:13:07.715Z</time>
      </trkpt>
      <trkpt lat="51.793442" lon="8.480663">
        <ele>81.518558</ele>
        <time>2026-08-11T20:13:47.667Z</time>
      </trkpt>
      <trkpt lat="51.793397" lon="8.480898">
        <ele>81.516597</ele>
        <time>2026-08-11T20:13:50.837Z</time>
      </trkpt>
      <trkpt lat="51.793406" lon="8.481053">
        <ele>81.515357</ele>
        <time>2026-08-11T20:13:52.845Z</time>
      </trkpt>
      <trkpt lat="51.793823" lon="8.483656">
        <ele>81.539977</ele>
        <time>2026-08-11T20:14:27.815Z</time>
      </trkpt>
      <trkpt lat="51.793916" lon="8.484350">
        <ele>81.577225</ele>
        <time>2026-08-11T20:14:37.155Z</time>
      </trkpt>
      <trkpt lat="51.793992" lon="8.484860">
        <ele>81.604742</ele>
        <time>2026-08-11T20:14:44.085Z</time>
      </trkpt>
      <trkpt lat="51.793977" lon="8.485061">
        <ele>81.615362</ele>
        <time>2026-08-11T20:14:46.755Z</time>
      </trkpt>
      <trkpt lat="51.793495" lon="8.487069">
        <ele>81.722117</ele>
        <time>2026-08-11T20:15:15.259Z</time>
      </trkpt>
      <trkpt lat="51.793123" lon="8.488506">
        <ele>81.790772</ele>
        <time>2026-08-11T20:15:35.605Z</time>
      </trkpt>
      <trkpt lat="51.793093" lon="8.488610">
        <ele>81.788610</ele>
        <time>2026-08-11T20:15:37.082Z</time>
      </trkpt>
      <trkpt lat="51.793071" lon="8.488854">
        <ele>81.783966</ele>
        <time>2026-08-11T20:15:40.263Z</time>
      </trkpt>
      <trkpt lat="51.793093" lon="8.488610">
        <ele>81.779322</ele>
        <time>2026-08-11T20:15:43.446Z</time>
      </trkpt>
      <trkpt lat="51.792287" lon="8.488582">
        <ele>81.754771</ele>
        <time>2026-08-11T20:16:00.296Z</time>
      </trkpt>
      <trkpt lat="51.790541" lon="8.488432">
        <ele>81.717248</ele>
        <time>2026-08-11T20:16:37.473Z</time>
      </trkpt>
      <trkpt lat="51.790913" lon="8.490581">
        <ele>81.596276</ele>
        <time>2026-08-11T20:17:06.157Z</time>
      </trkpt>
      <trkpt lat="51.791149" lon="8.491946">
        <ele>81.470855</ele>
        <time>2026-08-11T20:17:24.251Z</time>
      </trkpt>
      <trkpt lat="51.791312" lon="8.492886">
        <ele>81.533469</ele>
        <time>2026-08-11T20:17:36.954Z</time>
      </trkpt>
      <trkpt lat="51.791533" lon="8.494127">
        <ele>81.681283</ele>
        <time>2026-08-11T20:17:54.107Z</time>
      </trkpt>
      <trkpt lat="51.791759" lon="8.495460">
        <ele>81.857012</ele>
        <time>2026-08-11T20:18:12.640Z</time>
      </trkpt>
      <trkpt lat="51.791869" lon="8.496109">
        <ele>81.957631</ele>
        <time>2026-08-11T20:18:21.597Z</time>
      </trkpt>
      <trkpt lat="51.791959" lon="8.496623">
        <ele>82.037507</ele>
        <time>2026-08-11T20:18:28.683Z</time>
      </trkpt>
      <trkpt lat="51.792096" lon="8.497407">
        <ele>82.159322</ele>
        <time>2026-08-11T20:18:39.565Z</time>
      </trkpt>
      <trkpt lat="51.792169" lon="8.497827">
        <ele>82.220986</ele>
        <time>2026-08-11T20:18:45.386Z</time>
      </trkpt>
      <trkpt lat="51.792250" lon="8.498284">
        <ele>82.258073</ele>
        <time>2026-08-11T20:18:51.704Z</time>
      </trkpt>
      <trkpt lat="51.792472" lon="8.499559">
        <ele>82.361407</ele>
        <time>2026-08-11T20:19:09.329Z</time>
      </trkpt>
      <trkpt lat="51.791436" lon="8.500959">
        <ele>82.344427</ele>
        <time>2026-08-11T20:19:37.623Z</time>
      </trkpt>
      <trkpt lat="51.791153" lon="8.501341">
        <ele>82.291688</ele>
        <time>2026-08-11T20:19:45.242Z</time>
      </trkpt>
      <trkpt lat="51.790740" lon="8.501896">
        <ele>82.214862</ele>
        <time>2026-08-11T20:19:56.361Z</time>
      </trkpt>
      <trkpt lat="51.790285" lon="8.502503">
        <ele>82.175684</ele>
        <time>2026-08-11T20:20:08.568Z</time>
      </trkpt>
      <trkpt lat="51.790214" lon="8.502607">
        <ele>82.173007</ele>
        <time>2026-08-11T20:20:10.606Z</time>
      </trkpt>
      <trkpt lat="51.789392" lon="8.503305">
        <ele>82.147070</ele>
        <time>2026-08-11T20:20:30.257Z</time>
      </trkpt>
      <trkpt lat="51.789087" lon="8.503563">
        <ele>82.137453</ele>
        <time>2026-08-11T20:20:37.453Z</time>
      </trkpt>
      <trkpt lat="51.788880" lon="8.503544">
        <ele>82.139284</ele>
        <time>2026-08-11T20:20:41.796Z</time>
      </trkpt>
      <trkpt lat="51.786451" lon="8.503314">
        <ele>82.214045</ele>
        <time>2026-08-11T20:21:33.309Z</time>
      </trkpt>
      <trkpt lat="51.786225" lon="8.503293">
        <ele>82.227329</ele>
        <time>2026-08-11T20:21:38.108Z</time>
      </trkpt>
      <trkpt lat="51.786208" lon="8.503291">
        <ele>82.228329</ele>
        <time>2026-08-11T20:21:38.461Z</time>
      </trkpt>
      <trkpt lat="51.785514" lon="8.503212">
        <ele>82.269155</ele>
        <time>2026-08-11T20:21:53.272Z</time>
      </trkpt>
      <trkpt lat="51.785397" lon="8.503203">
        <ele>82.256024</ele>
        <time>2026-08-11T20:21:55.765Z</time>
      </trkpt>
      <trkpt lat="51.784572" lon="8.503142">
        <ele>82.038372</ele>
        <time>2026-08-11T20:22:13.204Z</time>
      </trkpt>
      <trkpt lat="51.783369" lon="8.503029">
        <ele>81.600278</ele>
        <time>2026-08-11T20:22:37.487Z</time>
      </trkpt>
      <trkpt lat="51.783177" lon="8.503011">
        <ele>81.470847</ele>
        <time>2026-08-11T20:22:41.210Z</time>
      </trkpt>
      <trkpt lat="51.782395" lon="8.502924">
        <ele>80.943323</ele>
        <time>2026-08-11T20:22:56.428Z</time>
      </trkpt>
      <trkpt lat="51.782170" lon="8.502890">
        <ele>80.791240</ele>
        <time>2026-08-11T20:23:00.920Z</time>
      </trkpt>
      <trkpt lat="51.781570" lon="8.502820">
        <ele>80.556615</ele>
        <time>2026-08-11T20:23:13.258Z</time>
      </trkpt>
      <trkpt lat="51.781396" lon="8.502653">
        <ele>80.535476</ele>
        <time>2026-08-11T20:23:17.489Z</time>
      </trkpt>
      <trkpt lat="51.781260" lon="8.502395">
        <ele>80.513571</ele>
        <time>2026-08-11T20:23:21.870Z</time>
      </trkpt>
      <trkpt lat="51.781214" lon="8.502289">
        <ele>80.505203</ele>
        <time>2026-08-11T20:23:23.575Z</time>
      </trkpt>
      <trkpt lat="51.780065" lon="8.499553">
        <ele>80.423652</ele>
        <time>2026-08-11T20:24:06.657Z</time>
      </trkpt>
      <trkpt lat="51.779041" lon="8.497026">
        <ele>80.382982</ele>
        <time>2026-08-11T20:24:46.279Z</time>
      </trkpt>
      <trkpt lat="51.778914" lon="8.496972">
        <ele>80.376118</ele>
        <time>2026-08-11T20:24:49.085Z</time>
      </trkpt>
      <trkpt lat="51.778949" lon="8.496579">
        <ele>80.363277</ele>
        <time>2026-08-11T20:24:54.269Z</time>
      </trkpt>
      <trkpt lat="51.778829" lon="8.496549">
        <ele>80.356930</ele>
        <time>2026-08-11T20:24:56.798Z</time>
      </trkpt>
      <trkpt lat="51.778711" lon="8.496456">
        <ele>80.350068</ele>
        <time>2026-08-11T20:24:59.619Z</time>
      </trkpt>
      <trkpt lat="51.778617" lon="8.496240">
        <ele>80.284022</ele>
        <time>2026-08-11T20:25:03.104Z</time>
      </trkpt>
      <trkpt lat="51.778505" lon="8.495929">
        <ele>80.148636</ele>
        <time>2026-08-11T20:25:09.129Z</time>
      </trkpt>
      <trkpt lat="51.778412" lon="8.495508">
        <ele>79.980449</ele>
        <time>2026-08-11T20:25:16.572Z</time>
      </trkpt>
      <trkpt lat="51.777943" lon="8.494356">
        <ele>79.461611</ele>
        <time>2026-08-11T20:25:39.255Z</time>
      </trkpt>
      <trkpt lat="51.777061" lon="8.494897">
        <ele>79.104081</ele>
        <time>2026-08-11T20:25:57.970Z</time>
      </trkpt>
      <trkpt lat="51.776754" lon="8.495085">
        <ele>79.022581</ele>
        <time>2026-08-11T20:26:04.747Z</time>
      </trkpt>
      <trkpt lat="51.775802" lon="8.495701">
        <ele>78.856647</ele>
        <time>2026-08-11T20:26:26.487Z</time>
      </trkpt>
      <trkpt lat="51.775686" lon="8.495773">
        <ele>78.896517</ele>
        <time>2026-08-11T20:26:29.181Z</time>
      </trkpt>
      <trkpt lat="51.775648" lon="8.495797">
        <ele>78.909607</ele>
        <time>2026-08-11T20:26:30.069Z</time>
      </trkpt>
      <trkpt lat="51.772784" lon="8.497434">
        <ele>79.921154</ele>
        <time>2026-08-11T20:27:36.198Z</time>
      </trkpt>
      <trkpt lat="51.772767" lon="8.497492">
        <ele>79.934834</ele>
        <time>2026-08-11T20:27:37.049Z</time>
      </trkpt>
      <trkpt lat="51.772510" lon="8.498399">
        <ele>80.060171</ele>
        <time>2026-08-11T20:27:50.200Z</time>
      </trkpt>
      <trkpt lat="51.771784" lon="8.500956">
        <ele>80.249356</ele>
        <time>2026-08-11T20:28:27.181Z</time>
      </trkpt>
      <trkpt lat="51.771707" lon="8.501078">
        <ele>80.249877</ele>
        <time>2026-08-11T20:28:29.479Z</time>
      </trkpt>
      <trkpt lat="51.770687" lon="8.496443">
        <ele>80.289483</ele>
        <time>2026-08-11T20:29:33.556Z</time>
      </trkpt>
      <trkpt lat="51.766592" lon="8.497086">
        <ele>81.863384</ele>
        <time>2026-08-11T20:31:05.969Z</time>
      </trkpt>
      <trkpt lat="51.766398" lon="8.497145">
        <ele>82.069710</ele>
        <time>2026-08-11T20:31:10.499Z</time>
      </trkpt>
      <trkpt lat="51.764966" lon="8.498026">
        <ele>84.110060</ele>
        <time>2026-08-11T20:31:46.498Z</time>
      </trkpt>
      <trkpt lat="51.764809" lon="8.498123">
        <ele>84.488777</ele>
        <time>2026-08-11T20:31:50.564Z</time>
      </trkpt>
      <trkpt lat="51.764187" lon="8.498553">
        <ele>86.013100</ele>
        <time>2026-08-11T20:32:07.092Z</time>
      </trkpt>
      <trkpt lat="51.761655" lon="8.499182">
        <ele>92.490348</ele>
        <time>2026-08-11T20:33:10.175Z</time>
      </trkpt>
      <trkpt lat="51.760423" lon="8.499473">
        <ele>94.770511</ele>
        <time>2026-08-11T20:33:39.865Z</time>
      </trkpt>
      <trkpt lat="51.760129" lon="8.499542">
        <ele>95.314568</ele>
        <time>2026-08-11T20:33:46.840Z</time>
      </trkpt>
      <trkpt lat="51.758978" lon="8.499360">
        <ele>96.914797</ele>
        <time>2026-08-11T20:34:13.979Z</time>
      </trkpt>
      <trkpt lat="51.758849" lon="8.499312">
        <ele>97.093319</ele>
        <time>2026-08-11T20:34:17.110Z</time>
      </trkpt>
      <trkpt lat="51.757745" lon="8.499039">
        <ele>98.461826</ele>
        <time>2026-08-11T20:34:43.367Z</time>
      </trkpt>
      <trkpt lat="51.757256" lon="8.498711">
        <ele>99.036492</ele>
        <time>2026-08-11T20:34:55.813Z</time>
      </trkpt>
      <trkpt lat="51.754648" lon="8.497506">
        <ele>100.751193</ele>
        <time>2026-08-11T20:35:58.174Z</time>
      </trkpt>
      <trkpt lat="51.752678" lon="8.498262">
        <ele>98.101976</ele>
        <time>2026-08-11T20:36:36.975Z</time>
      </trkpt>
      <trkpt lat="51.752568" lon="8.498570">
        <ele>97.417077</ele>
        <time>2026-08-11T20:36:40.810Z</time>
      </trkpt>
      <trkpt lat="51.752405" lon="8.498838">
        <ele>96.693418</ele>
        <time>2026-08-11T20:36:44.807Z</time>
      </trkpt>
      <trkpt lat="51.752224" lon="8.499043">
        <ele>96.005616</ele>
        <time>2026-08-11T20:36:48.517Z</time>
      </trkpt>
      <trkpt lat="51.750763" lon="8.500074">
        <ele>90.666116</ele>
        <time>2026-08-11T20:37:14.399Z</time>
      </trkpt>
      <trkpt lat="51.749989" lon="8.500174">
        <ele>87.909473</ele>
        <time>2026-08-11T20:37:27.473Z</time>
      </trkpt>
      <trkpt lat="51.749639" lon="8.500369">
        <ele>87.167576</ele>
        <time>2026-08-11T20:37:34.157Z</time>
      </trkpt>
      <trkpt lat="51.748644" lon="8.497171">
        <ele>85.673337</ele>
        <time>2026-08-11T20:38:19.369Z</time>
      </trkpt>
      <trkpt lat="51.748083" lon="8.495262">
        <ele>85.411776</ele>
        <time>2026-08-11T20:38:46.446Z</time>
      </trkpt>
      <trkpt lat="51.748030" lon="8.495010">
        <ele>85.446740</ele>
        <time>2026-08-11T20:38:49.875Z</time>
      </trkpt>
      <trkpt lat="51.747905" lon="8.493870">
        <ele>85.598836</ele>
        <time>2026-08-11T20:39:05.189Z</time>
      </trkpt>
      <trkpt lat="51.747683" lon="8.490770">
        <ele>85.864053</ele>
        <time>2026-08-11T20:39:47.493Z</time>
      </trkpt>
      <trkpt lat="51.747656" lon="8.490458">
        <ele>85.880960</ele>
        <time>2026-08-11T20:39:51.501Z</time>
      </trkpt>
      <trkpt lat="51.747481" lon="8.490378">
        <ele>85.896725</ele>
        <time>2026-08-11T20:39:55.189Z</time>
      </trkpt>
      <trkpt lat="51.746518" lon="8.489923">
        <ele>85.519519</ele>
        <time>2026-08-11T20:40:14.930Z</time>
      </trkpt>
      <trkpt lat="51.745980" lon="8.489720">
        <ele>85.218474</ele>
        <time>2026-08-11T20:40:25.881Z</time>
      </trkpt>
      <trkpt lat="51.744891" lon="8.488936">
        <ele>85.021368</ele>
        <time>2026-08-11T20:40:50.625Z</time>
      </trkpt>
      <trkpt lat="51.744715" lon="8.488906">
        <ele>85.042530</ele>
        <time>2026-08-11T20:40:54.407Z</time>
      </trkpt>
      <trkpt lat="51.743839" lon="8.489168">
        <ele>85.149061</ele>
        <time>2026-08-11T20:41:13.653Z</time>
      </trkpt>
      <trkpt lat="51.743116" lon="8.489733">
        <ele>85.366919</ele>
        <time>2026-08-11T20:41:31.272Z</time>
      </trkpt>
      <trkpt lat="51.742501" lon="8.490298">
        <ele>85.565910</ele>
        <time>2026-08-11T20:41:46.465Z</time>
      </trkpt>
      <trkpt lat="51.741616" lon="8.491061">
        <ele>85.644439</ele>
        <time>2026-08-11T20:42:07.848Z</time>
      </trkpt>
      <trkpt lat="51.741473" lon="8.491181">
        <ele>85.640465</ele>
        <time>2026-08-11T20:42:11.221Z</time>
      </trkpt>
      <trkpt lat="51.741418" lon="8.491225">
        <ele>85.638951</ele>
        <time>2026-08-11T20:42:12.497Z</time>
      </trkpt>
      <trkpt lat="51.741290" lon="8.491316">
        <ele>85.635502</ele>
        <time>2026-08-11T20:42:15.420Z</time>
      </trkpt>
      <trkpt lat="51.740776" lon="8.491416">
        <ele>85.622734</ele>
        <time>2026-08-11T20:42:26.242Z</time>
      </trkpt>
      <trkpt lat="51.739021" lon="8.491760">
        <ele>85.312256</ele>
        <time>2026-08-11T20:43:02.866Z</time>
      </trkpt>
      <trkpt lat="51.736762" lon="8.492119">
        <ele>84.922744</ele>
        <time>2026-08-11T20:43:49.881Z</time>
      </trkpt>
      <trkpt lat="51.736853" lon="8.490606">
        <ele>84.821518</ele>
        <time>2026-08-11T20:44:09.532Z</time>
      </trkpt>
      <trkpt lat="51.737235" lon="8.484267">
        <ele>84.512149</ele>
        <time>2026-08-11T20:45:32.140Z</time>
      </trkpt>
      <trkpt lat="51.737474" lon="8.480290">
        <ele>84.400790</ele>
        <time>2026-08-11T20:46:24.041Z</time>
      </trkpt>
      <trkpt lat="51.736510" lon="8.476356">
        <ele>84.355806</ele>
        <time>2026-08-11T20:47:19.021Z</time>
      </trkpt>
      <trkpt lat="51.734990" lon="8.469959">
        <ele>84.563621</ele>
        <time>2026-08-11T20:48:49.362Z</time>
      </trkpt>
      <trkpt lat="51.733222" lon="8.464778">
        <ele>82.991805</ele>
        <time>2026-08-11T20:50:06.664Z</time>
      </trkpt>
      <trkpt lat="51.732896" lon="8.463781">
        <ele>82.870935</ele>
        <time>2026-08-11T20:50:21.662Z</time>
      </trkpt>
      <trkpt lat="51.731989" lon="8.461011">
        <ele>82.682535</ele>
        <time>2026-08-11T20:51:03.925Z</time>
      </trkpt>
      <trkpt lat="51.731040" lon="8.457310">
        <ele>82.776267</ele>
        <time>2026-08-11T20:51:58.645Z</time>
      </trkpt>
      <trkpt lat="51.730905" lon="8.457460">
        <ele>82.787058</ele>
        <time>2026-08-11T20:52:02.291Z</time>
      </trkpt>
      <trkpt lat="51.730711" lon="8.457674">
        <ele>82.790004</ele>
        <time>2026-08-11T20:52:07.519Z</time>
      </trkpt>
      <trkpt lat="51.727655" lon="8.461033">
        <ele>82.830141</ele>
        <time>2026-08-11T20:53:28.656Z</time>
      </trkpt>
      <trkpt lat="51.724880" lon="8.464061">
        <ele>83.114570</ele>
        <time>2026-08-11T20:54:42.637Z</time>
      </trkpt>
      <trkpt lat="51.724841" lon="8.464092">
        <ele>83.121057</ele>
        <time>2026-08-11T20:54:43.604Z</time>
      </trkpt>
      <trkpt lat="51.721756" lon="8.464448">
        <ele>83.606387</ele>
        <time>2026-08-11T20:55:52.315Z</time>
      </trkpt>
      <trkpt lat="51.714515" lon="8.465191">
        <ele>84.717947</ele>
        <time>2026-08-11T20:58:27.679Z</time>
      </trkpt>
      <trkpt lat="51.713656" lon="8.465309">
        <ele>84.572185</ele>
        <time>2026-08-11T20:58:45.329Z</time>
      </trkpt>
      <trkpt lat="51.713118" lon="8.462639">
        <ele>84.108734</ele>
        <time>2026-08-11T20:59:22.428Z</time>
      </trkpt>
      <trkpt lat="51.712718" lon="8.461213">
        <ele>83.974468</ele>
        <time>2026-08-11T20:59:43.422Z</time>
      </trkpt>
      <trkpt lat="51.712547" lon="8.460605">
        <ele>83.921756</ele>
        <time>2026-08-11T20:59:52.545Z</time>
      </trkpt>
      <trkpt lat="51.712379" lon="8.458591">
        <ele>83.861776</ele>
        <time>2026-08-11T21:00:20.322Z</time>
      </trkpt>
      <trkpt lat="51.712857" lon="8.458322">
        <ele>83.832518</ele>
        <time>2026-08-11T21:00:31.249Z</time>
      </trkpt>
      <trkpt lat="51.713720" lon="8.457835">
        <ele>83.511844</ele>
        <time>2026-08-11T21:00:50.609Z</time>
      </trkpt>
      <trkpt lat="51.713557" lon="8.453055">
        <ele>82.546000</ele>
        <time>2026-08-11T21:01:54.072Z</time>
      </trkpt>
      <trkpt lat="51.713551" lon="8.452899">
        <ele>82.522472</ele>
        <time>2026-08-11T21:01:56.150Z</time>
      </trkpt>
      <trkpt lat="51.713286" lon="8.446512">
        <ele>81.702352</ele>
        <time>2026-08-11T21:03:21.527Z</time>
      </trkpt>
      <trkpt lat="51.713280" lon="8.446418">
        <ele>81.696805</ele>
        <time>2026-08-11T21:03:22.802Z</time>
      </trkpt>
      <trkpt lat="51.713191" lon="8.443992">
        <ele>81.642030</ele>
        <time>2026-08-11T21:03:55.931Z</time>
      </trkpt>
      <trkpt lat="51.713082" lon="8.441300">
        <ele>81.695426</ele>
        <time>2026-08-11T21:04:32.960Z</time>
      </trkpt>
      <trkpt lat="51.711535" lon="8.442462">
        <ele>81.526501</ele>
        <time>2026-08-11T21:05:09.830Z</time>
      </trkpt>
      <trkpt lat="51.711441" lon="8.442533">
        <ele>81.511684</ele>
        <time>2026-08-11T21:05:12.080Z</time>
      </trkpt>
      <trkpt lat="51.711219" lon="8.442697">
        <ele>81.476829</ele>
        <time>2026-08-11T21:05:17.132Z</time>
      </trkpt>
      <trkpt lat="51.711095" lon="8.442698">
        <ele>81.459127</ele>
        <time>2026-08-11T21:05:19.714Z</time>
      </trkpt>
      <trkpt lat="51.709476" lon="8.442206">
        <ele>81.030871</ele>
        <time>2026-08-11T21:05:54.039Z</time>
      </trkpt>
      <trkpt lat="51.709049" lon="8.442087">
        <ele>80.836811</ele>
        <time>2026-08-11T21:06:02.824Z</time>
      </trkpt>
      <trkpt lat="51.708745" lon="8.441970">
        <ele>80.696848</ele>
        <time>2026-08-11T21:06:09.080Z</time>
      </trkpt>
      <trkpt lat="51.708203" lon="8.440601">
        <ele>80.285050</ele>
        <time>2026-08-11T21:06:28.824Z</time>
      </trkpt>
      <trkpt lat="51.708098" lon="8.440489">
        <ele>80.237057</ele>
        <time>2026-08-11T21:06:31.333Z</time>
      </trkpt>
      <trkpt lat="51.707968" lon="8.440420">
        <ele>80.184875</ele>
        <time>2026-08-11T21:06:34.052Z</time>
      </trkpt>
      <trkpt lat="51.707823" lon="8.439353">
        <ele>79.926769</ele>
        <time>2026-08-11T21:06:47.970Z</time>
      </trkpt>
      <trkpt lat="51.707738" lon="8.438643">
        <ele>79.884239</ele>
        <time>2026-08-11T21:06:57.668Z</time>
      </trkpt>
      <trkpt lat="51.707757" lon="8.438128">
        <ele>79.995735</ele>
        <time>2026-08-11T21:07:04.809Z</time>
      </trkpt>
      <trkpt lat="51.708087" lon="8.436599">
        <ele>80.345641</ele>
        <time>2026-08-11T21:07:26.754Z</time>
      </trkpt>
      <trkpt lat="51.708253" lon="8.436193">
        <ele>80.450464</ele>
        <time>2026-08-11T21:07:33.170Z</time>
      </trkpt>
      <trkpt lat="51.708361" lon="8.435823">
        <ele>80.490312</ele>
        <time>2026-08-11T21:07:38.507Z</time>
      </trkpt>
      <trkpt lat="51.708402" lon="8.435448">
        <ele>80.527413</ele>
        <time>2026-08-11T21:07:43.465Z</time>
      </trkpt>
      <trkpt lat="51.708418" lon="8.435120">
        <ele>80.559469</ele>
        <time>2026-08-11T21:07:47.692Z</time>
      </trkpt>
      <trkpt lat="51.708398" lon="8.434697">
        <ele>80.600802</ele>
        <time>2026-08-11T21:07:53.201Z</time>
      </trkpt>
      <trkpt lat="51.708307" lon="8.434091">
        <ele>80.661554</ele>
        <time>2026-08-11T21:08:01.543Z</time>
      </trkpt>
      <trkpt lat="51.708211" lon="8.433666">
        <ele>80.705627</ele>
        <time>2026-08-11T21:08:07.667Z</time>
      </trkpt>
      <trkpt lat="51.708159" lon="8.433623">
        <ele>80.714814</ele>
        <time>2026-08-11T21:08:08.916Z</time>
      </trkpt>
      <trkpt lat="51.708075" lon="8.433578">
        <ele>80.728730</ele>
        <time>2026-08-11T21:08:10.855Z</time>
      </trkpt>
      <trkpt lat="51.707867" lon="8.432913">
        <ele>80.611020</ele>
        <time>2026-08-11T21:08:20.780Z</time>
      </trkpt>
      <trkpt lat="51.707758" lon="8.432196">
        <ele>80.482507</ele>
        <time>2026-08-11T21:08:30.304Z</time>
      </trkpt>
      <trkpt lat="51.707751" lon="8.431984">
        <ele>80.445551</ele>
        <time>2026-08-11T21:08:32.980Z</time>
      </trkpt>
      <trkpt lat="51.707833" lon="8.430830">
        <ele>80.243352</ele>
        <time>2026-08-11T21:08:47.307Z</time>
      </trkpt>
      <trkpt lat="51.707822" lon="8.430577">
        <ele>80.174680</ele>
        <time>2026-08-11T21:08:50.380Z</time>
      </trkpt>
      <trkpt lat="51.707779" lon="8.430361">
        <ele>80.101270</ele>
        <time>2026-08-11T21:08:53.137Z</time>
      </trkpt>
      <trkpt lat="51.707683" lon="8.430121">
        <ele>80.008838</ele>
        <time>2026-08-11T21:08:56.627Z</time>
      </trkpt>
      <trkpt lat="51.707137" lon="8.429447">
        <ele>79.649882</ele>
        <time>2026-08-11T21:09:10.431Z</time>
      </trkpt>
      <trkpt lat="51.706928" lon="8.429076">
        <ele>79.487642</ele>
        <time>2026-08-11T21:09:16.805Z</time>
      </trkpt>
      <trkpt lat="51.705456" lon="8.426218">
        <ele>78.810486</ele>
        <time>2026-08-11T21:10:04.093Z</time>
      </trkpt>
      <trkpt lat="51.705407" lon="8.426119">
        <ele>78.821997</ele>
        <time>2026-08-11T21:10:05.738Z</time>
      </trkpt>
      <trkpt lat="51.705122" lon="8.425488">
        <ele>78.892933</ele>
        <time>2026-08-11T21:10:16.000Z</time>
      </trkpt>
      <trkpt lat="51.704908" lon="8.424556">
        <ele>78.983231</ele>
        <time>2026-08-11T21:10:29.312Z</time>
      </trkpt>
      <trkpt lat="51.704801" lon="8.424261">
        <ele>79.014285</ele>
        <time>2026-08-11T21:10:33.901Z</time>
      </trkpt>
      <trkpt lat="51.704450" lon="8.423387">
        <ele>79.103825</ele>
        <time>2026-08-11T21:10:47.853Z</time>
      </trkpt>
      <trkpt lat="51.704356" lon="8.423259">
        <ele>79.120121</ele>
        <time>2026-08-11T21:10:50.486Z</time>
      </trkpt>
      <trkpt lat="51.703480" lon="8.421190">
        <ele>79.329532</ele>
        <time>2026-08-11T21:11:23.420Z</time>
      </trkpt>
      <trkpt lat="51.702710" lon="8.419326">
        <ele>79.534934</ele>
        <time>2026-08-11T21:11:52.957Z</time>
      </trkpt>
      <trkpt lat="51.702557" lon="8.418954">
        <ele>79.602959</ele>
        <time>2026-08-11T21:11:58.886Z</time>
      </trkpt>
      <trkpt lat="51.702478" lon="8.418761">
        <ele>79.661666</ele>
        <time>2026-08-11T21:12:01.989Z</time>
      </trkpt>
      <trkpt lat="51.702160" lon="8.417986">
        <ele>79.897579</ele>
        <time>2026-08-11T21:12:14.576Z</time>
      </trkpt>
      <trkpt lat="51.702053" lon="8.417747">
        <ele>79.972414</ele>
        <time>2026-08-11T21:12:18.614Z</time>
      </trkpt>
      <trkpt lat="51.701970" lon="8.417479">
        <ele>80.048458</ele>
        <time>2026-08-11T21:12:22.683Z</time>
      </trkpt>
      <trkpt lat="51.701501" lon="8.416467">
        <ele>80.309625</ele>
        <time>2026-08-11T21:12:39.970Z</time>
      </trkpt>
      <trkpt lat="51.700474" lon="8.414194">
        <ele>80.388349</ele>
        <time>2026-08-11T21:13:16.642Z</time>
      </trkpt>
      <trkpt lat="51.699681" lon="8.412453">
        <ele>79.987198</ele>
        <time>2026-08-11T21:13:43.772Z</time>
      </trkpt>
      <trkpt lat="51.699531" lon="8.412263">
        <ele>79.930069</ele>
        <time>2026-08-11T21:13:47.657Z</time>
      </trkpt>
      <trkpt lat="51.697739" lon="8.408327">
        <ele>80.089130</ele>
        <time>2026-08-11T21:14:51.760Z</time>
      </trkpt>
      <trkpt lat="51.697697" lon="8.408169">
        <ele>80.111310</ele>
        <time>2026-08-11T21:14:54.147Z</time>
      </trkpt>
      <trkpt lat="51.697753" lon="8.408114">
        <ele>80.124956</ele>
        <time>2026-08-11T21:14:55.625Z</time>
      </trkpt>
      <trkpt lat="51.698700" lon="8.407199">
        <ele>80.243678</ele>
        <time>2026-08-11T21:15:19.495Z</time>
      </trkpt>
      <trkpt lat="51.698975" lon="8.406963">
        <ele>80.246452</ele>
        <time>2026-08-11T21:15:26.303Z</time>
      </trkpt>
      <trkpt lat="51.699106" lon="8.406909">
        <ele>80.247656</ele>
        <time>2026-08-11T21:15:29.256Z</time>
      </trkpt>
      <trkpt lat="51.699549" lon="8.406714">
        <ele>80.251747</ele>
        <time>2026-08-11T21:15:38.743Z</time>
      </trkpt>
      <trkpt lat="51.699780" lon="8.406612">
        <ele>80.253880</ele>
        <time>2026-08-11T21:15:43.438Z</time>
      </trkpt>
      <trkpt lat="51.699999" lon="8.406516">
        <ele>80.174342</ele>
        <time>2026-08-11T21:15:47.946Z</time>
      </trkpt>
      <trkpt lat="51.699999" lon="8.406242">
        <ele>80.070113</ele>
        <time>2026-08-11T21:15:51.426Z</time>
      </trkpt>
      <trkpt lat="51.699904" lon="8.405957">
        <ele>79.947014</ele>
        <time>2026-08-11T21:15:55.500Z</time>
      </trkpt>
      <trkpt lat="51.699820" lon="8.405710">
        <ele>79.839840</ele>
        <time>2026-08-11T21:15:59.017Z</time>
      </trkpt>
      <trkpt lat="51.699737" lon="8.405461">
        <ele>79.732291</ele>
        <time>2026-08-11T21:16:02.528Z</time>
      </trkpt>
      <trkpt lat="51.699639" lon="8.405186">
        <ele>79.611621</ele>
        <time>2026-08-11T21:16:06.412Z</time>
      </trkpt>
      <trkpt lat="51.699565" lon="8.404941">
        <ele>79.507945</ele>
        <time>2026-08-11T21:16:09.692Z</time>
      </trkpt>
      <trkpt lat="51.699485" lon="8.404704">
        <ele>79.405285</ele>
        <time>2026-08-11T21:16:12.903Z</time>
      </trkpt>
      <trkpt lat="51.699393" lon="8.404446">
        <ele>79.292057</ele>
        <time>2026-08-11T21:16:16.484Z</time>
      </trkpt>
      <trkpt lat="51.699688" lon="8.404193">
        <ele>79.188671</ele>
        <time>2026-08-11T21:16:23.971Z</time>
      </trkpt>
      <trkpt lat="51.699829" lon="8.404071">
        <ele>79.246989</ele>
        <time>2026-08-11T21:16:27.693Z</time>
      </trkpt>
      <trkpt lat="51.699973" lon="8.403949">
        <ele>79.306272</ele>
        <time>2026-08-11T21:16:31.482Z</time>
      </trkpt>
      <trkpt lat="51.699829" lon="8.404071">
        <ele>79.365555</ele>
        <time>2026-08-11T21:16:35.266Z</time>
      </trkpt>
      <trkpt lat="51.699688" lon="8.404193">
        <ele>79.423873</ele>
        <time>2026-08-11T21:16:39.054Z</time>
      </trkpt>
      <trkpt lat="51.699393" lon="8.404446">
        <ele>79.545645</ele>
        <time>2026-08-11T21:16:47.118Z</time>
      </trkpt>
      <trkpt lat="51.699485" lon="8.404704">
        <ele>79.612888</ele>
        <time>2026-08-11T21:16:51.277Z</time>
      </trkpt>
      <trkpt lat="51.699565" lon="8.404941">
        <ele>79.673854</ele>
        <time>2026-08-11T21:16:55.071Z</time>
      </trkpt>
      <trkpt lat="51.699639" lon="8.405186">
        <ele>79.735424</ele>
        <time>2026-08-11T21:16:58.933Z</time>
      </trkpt>
      <trkpt lat="51.699737" lon="8.405461">
        <ele>79.804506</ele>
        <time>2026-08-11T21:17:03.356Z</time>
      </trkpt>
      <trkpt lat="51.699820" lon="8.405710">
        <ele>79.632049</ele>
        <time>2026-08-11T21:17:07.248Z</time>
      </trkpt>
      <trkpt lat="51.699904" lon="8.405957">
        <ele>79.460194</ele>
        <time>2026-08-11T21:17:11.059Z</time>
      </trkpt>
      <trkpt lat="51.699999" lon="8.406242">
        <ele>79.262803</ele>
        <time>2026-08-11T21:17:15.351Z</time>
      </trkpt>
      <trkpt lat="51.700144" lon="8.406208">
        <ele>79.118598</ele>
        <time>2026-08-11T21:17:18.376Z</time>
      </trkpt>
      <trkpt lat="51.700172" lon="8.406475">
        <ele>78.953421</ele>
        <time>2026-08-11T21:17:22.872Z</time>
      </trkpt>
      <trkpt lat="51.701774" lon="8.406089">
        <ele>76.761873</ele>
        <time>2026-08-11T21:17:50.971Z</time>
      </trkpt>
      <trkpt lat="51.704037" lon="8.405543">
        <ele>73.959530</ele>
        <time>2026-08-11T21:18:32.463Z</time>
      </trkpt>
      <trkpt lat="51.704053" lon="8.405539">
        <ele>73.949295</ele>
        <time>2026-08-11T21:18:32.815Z</time>
      </trkpt>
      <trkpt lat="51.704297" lon="8.405490">
        <ele>73.793866</ele>
        <time>2026-08-11T21:18:38.164Z</time>
      </trkpt>
      <trkpt lat="51.705361" lon="8.405222">
        <ele>74.525336</ele>
        <time>2026-08-11T21:19:02.919Z</time>
      </trkpt>
      <trkpt lat="51.706488" lon="8.405088">
        <ele>75.991341</ele>
        <time>2026-08-11T21:19:28.882Z</time>
      </trkpt>
      <trkpt lat="51.707976" lon="8.405119">
        <ele>76.660518</ele>
        <time>2026-08-11T21:20:01.214Z</time>
      </trkpt>
      <trkpt lat="51.710303" lon="8.405170">
        <ele>76.688589</ele>
        <time>2026-08-11T21:20:50.436Z</time>
      </trkpt>
      <trkpt lat="51.710338" lon="8.405154">
        <ele>76.675043</ele>
        <time>2026-08-11T21:20:51.173Z</time>
      </trkpt>
      <trkpt lat="51.710008" lon="8.403754">
        <ele>76.329426</ele>
        <time>2026-08-11T21:21:10.083Z</time>
      </trkpt>
      <trkpt lat="51.715912" lon="8.406083">
        <ele>76.681516</ele>
        <time>2026-08-11T21:23:25.097Z</time>
      </trkpt>
      <trkpt lat="51.716065" lon="8.406150">
        <ele>76.623440</ele>
        <time>2026-08-11T21:23:28.338Z</time>
      </trkpt>
      <trkpt lat="51.717064" lon="8.406576">
        <ele>76.244913</ele>
        <time>2026-08-11T21:23:49.479Z</time>
      </trkpt>
      <trkpt lat="51.717283" lon="8.406725">
        <ele>76.157849</ele>
        <time>2026-08-11T21:23:54.463Z</time>
      </trkpt>
      <trkpt lat="51.718288" lon="8.407584">
        <ele>76.671085</ele>
        <time>2026-08-11T21:24:20.353Z</time>
      </trkpt>
      <trkpt lat="51.718449" lon="8.407733">
        <ele>76.798557</ele>
        <time>2026-08-11T21:24:24.693Z</time>
      </trkpt>
      <trkpt lat="51.718704" lon="8.408155">
        <ele>77.049403</ele>
        <time>2026-08-11T21:24:33.225Z</time>
      </trkpt>
      <trkpt lat="51.719360" lon="8.409438">
        <ele>77.775966</ele>
        <time>2026-08-11T21:24:57.035Z</time>
      </trkpt>
      <trkpt lat="51.719749" lon="8.410233">
        <ele>78.224669</ele>
        <time>2026-08-11T21:25:11.483Z</time>
      </trkpt>
      <trkpt lat="51.719848" lon="8.410436">
        <ele>78.339097</ele>
        <time>2026-08-11T21:25:15.128Z</time>
      </trkpt>
      <trkpt lat="51.719943" lon="8.411384">
        <ele>78.624615</ele>
        <time>2026-08-11T21:25:28.096Z</time>
      </trkpt>
      <trkpt lat="51.720269" lon="8.411282">
        <ele>78.675968</ele>
        <time>2026-08-11T21:25:35.277Z</time>
      </trkpt>
      <trkpt lat="51.720382" lon="8.411264">
        <ele>78.693528</ele>
        <time>2026-08-11T21:25:37.742Z</time>
      </trkpt>
      <trkpt lat="51.720399" lon="8.411261">
        <ele>78.696172</ele>
        <time>2026-08-11T21:25:38.109Z</time>
      </trkpt>
      <trkpt lat="51.720648" lon="8.411222">
        <ele>78.734859</ele>
        <time>2026-08-11T21:25:43.480Z</time>
      </trkpt>
      <trkpt lat="51.722985" lon="8.411204">
        <ele>78.814220</ele>
        <time>2026-08-11T21:26:32.571Z</time>
      </trkpt>
      <trkpt lat="51.725352" lon="8.411219">
        <ele>78.820721</ele>
        <time>2026-08-11T21:27:22.447Z</time>
      </trkpt>
      <trkpt lat="51.726702" lon="8.411207">
        <ele>78.883482</ele>
        <time>2026-08-11T21:27:52.203Z</time>
      </trkpt>
      <trkpt lat="51.727239" lon="8.411212">
        <ele>78.914352</ele>
        <time>2026-08-11T21:28:04.022Z</time>
      </trkpt>
      <trkpt lat="51.727385" lon="8.411210">
        <ele>78.923542</ele>
        <time>2026-08-11T21:28:07.243Z</time>
      </trkpt>
      <trkpt lat="51.727437" lon="8.411210">
        <ele>78.926815</ele>
        <time>2026-08-11T21:28:08.381Z</time>
      </trkpt>
      <trkpt lat="51.728757" lon="8.411213">
        <ele>79.009061</ele>
        <time>2026-08-11T21:28:37.532Z</time>
      </trkpt>
      <trkpt lat="51.729033" lon="8.411266">
        <ele>79.023580</ele>
        <time>2026-08-11T21:28:43.672Z</time>
      </trkpt>
      <trkpt lat="51.729202" lon="8.411381">
        <ele>79.033160</ele>
        <time>2026-08-11T21:28:47.724Z</time>
      </trkpt>
      <trkpt lat="51.730714" lon="8.413537">
        <ele>79.014098</ele>
        <time>2026-08-11T21:29:31.990Z</time>
      </trkpt>
      <trkpt lat="51.732799" lon="8.415967">
        <ele>78.777787</ele>
        <time>2026-08-11T21:30:27.585Z</time>
      </trkpt>
      <trkpt lat="51.733478" lon="8.416711">
        <ele>78.845783</ele>
        <time>2026-08-11T21:30:45.996Z</time>
      </trkpt>
      <trkpt lat="51.734061" lon="8.417438">
        <ele>78.964279</ele>
        <time>2026-08-11T21:31:02.612Z</time>
      </trkpt>
      <trkpt lat="51.735245" lon="8.416474">
        <ele>78.808853</ele>
        <time>2026-08-11T21:31:31.483Z</time>
      </trkpt>
      <trkpt lat="51.736377" lon="8.415593">
        <ele>78.422031</ele>
        <time>2026-08-11T21:31:57.924Z</time>
      </trkpt>
      <trkpt lat="51.736471" lon="8.415518">
        <ele>78.383263</ele>
        <time>2026-08-11T21:32:00.126Z</time>
      </trkpt>
      <trkpt lat="51.736502" lon="8.415503">
        <ele>78.371297</ele>
        <time>2026-08-11T21:32:00.799Z</time>
      </trkpt>
      <trkpt lat="51.737662" lon="8.415019">
        <ele>77.928298</ele>
        <time>2026-08-11T21:32:26.268Z</time>
      </trkpt>
      <trkpt lat="51.739925" lon="8.414076">
        <ele>77.842256</ele>
        <time>2026-08-11T21:33:17.509Z</time>
      </trkpt>
      <trkpt lat="51.740847" lon="8.413714">
        <ele>77.908870</ele>
        <time>2026-08-11T21:33:38.720Z</time>
      </trkpt>
      <trkpt lat="51.743177" lon="8.413784">
        <ele>77.766873</ele>
        <time>2026-08-11T21:34:29.516Z</time>
      </trkpt>
      <trkpt lat="51.746713" lon="8.414181">
        <ele>77.131306</ele>
        <time>2026-08-11T21:35:45.777Z</time>
      </trkpt>
      <trkpt lat="51.747891" lon="8.414306">
        <ele>77.435907</ele>
        <time>2026-08-11T21:36:12.384Z</time>
      </trkpt>
      <trkpt lat="51.749750" lon="8.414507">
        <ele>77.896711</ele>
        <time>2026-08-11T21:36:54.152Z</time>
      </trkpt>
      <trkpt lat="51.750219" lon="8.414565">
        <ele>78.008625</ele>
        <time>2026-08-11T21:37:04.564Z</time>
      </trkpt>
      <trkpt lat="51.750847" lon="8.414635">
        <ele>78.096429</ele>
        <time>2026-08-11T21:37:18.493Z</time>
      </trkpt>
      <trkpt lat="51.752559" lon="8.414829">
        <ele>78.285455</ele>
        <time>2026-08-11T21:37:56.571Z</time>
      </trkpt>
      <trkpt lat="51.752563" lon="8.412371">
        <ele>78.332646</ele>
        <time>2026-08-11T21:38:30.216Z</time>
      </trkpt>
      <trkpt lat="51.752691" lon="8.412328">
        <ele>78.282576</ele>
        <time>2026-08-11T21:38:33.246Z</time>
      </trkpt>
      <trkpt lat="51.752775" lon="8.412184">
        <ele>78.235666</ele>
        <time>2026-08-11T21:38:36.056Z</time>
      </trkpt>
      <trkpt lat="51.754932" lon="8.413846">
        <ele>77.143952</ele>
        <time>2026-08-11T21:39:29.989Z</time>
      </trkpt>
      <trkpt lat="51.755218" lon="8.414012">
        <ele>76.974498</ele>
        <time>2026-08-11T21:39:36.832Z</time>
      </trkpt>
      <trkpt lat="51.755363" lon="8.413986">
        <ele>76.893149</ele>
        <time>2026-08-11T21:39:40.115Z</time>
      </trkpt>
      <trkpt lat="51.755433" lon="8.413836">
        <ele>76.828310</ele>
        <time>2026-08-11T21:39:42.729Z</time>
      </trkpt>
      <trkpt lat="51.755439" lon="8.413642">
        <ele>76.761265</ele>
        <time>2026-08-11T21:39:45.436Z</time>
      </trkpt>
      <trkpt lat="51.755007" lon="8.409077">
        <ele>74.993273</ele>
        <time>2026-08-11T21:40:48.676Z</time>
      </trkpt>
      <trkpt lat="51.754922" lon="8.407733">
        <ele>74.692889</ele>
        <time>2026-08-11T21:41:08.060Z</time>
      </trkpt>
      <trkpt lat="51.754926" lon="8.406952">
        <ele>75.116713</ele>
        <time>2026-08-11T21:41:19.780Z</time>
      </trkpt>
      <trkpt lat="51.754897" lon="8.406665">
        <ele>75.276417</ele>
        <time>2026-08-11T21:41:24.164Z</time>
      </trkpt>
      <trkpt lat="51.754844" lon="8.406400">
        <ele>75.429361</ele>
        <time>2026-08-11T21:41:28.363Z</time>
      </trkpt>
      <trkpt lat="51.754798" lon="8.406288">
        <ele>75.503178</ele>
        <time>2026-08-11T21:41:30.401Z</time>
      </trkpt>
      <trkpt lat="51.754828" lon="8.406071">
        <ele>75.625289</ele>
        <time>2026-08-11T21:41:33.767Z</time>
      </trkpt>
      <trkpt lat="51.754822" lon="8.405731">
        <ele>75.812091</ele>
        <time>2026-08-11T21:41:38.940Z</time>
      </trkpt>
      <trkpt lat="51.754855" lon="8.405687">
        <ele>75.850053</ele>
        <time>2026-08-11T21:41:39.994Z</time>
      </trkpt>
      <trkpt lat="51.754939" lon="8.405671">
        <ele>75.925093</ele>
        <time>2026-08-11T21:41:42.085Z</time>
      </trkpt>
      <trkpt lat="51.755578" lon="8.406227">
        <ele>76.586347</ele>
        <time>2026-08-11T21:41:59.975Z</time>
      </trkpt>
      <trkpt lat="51.755694" lon="8.406296">
        <ele>76.702761</ele>
        <time>2026-08-11T21:42:02.999Z</time>
      </trkpt>
      <trkpt lat="51.756257" lon="8.406380">
        <ele>77.235228</ele>
        <time>2026-08-11T21:42:16.763Z</time>
      </trkpt>
      <trkpt lat="51.756574" lon="8.407022">
        <ele>77.713969</ele>
        <time>2026-08-11T21:42:28.539Z</time>
      </trkpt>
      <trkpt lat="51.756646" lon="8.407132">
        <ele>77.807294</ele>
        <time>2026-08-11T21:42:30.848Z</time>
      </trkpt>
      <trkpt lat="51.756712" lon="8.407164">
        <ele>77.872189</ele>
        <time>2026-08-11T21:42:32.451Z</time>
      </trkpt>
      <trkpt lat="51.756886" lon="8.407070">
        <ele>77.999815</ele>
        <time>2026-08-11T21:42:36.676Z</time>
      </trkpt>
      <trkpt lat="51.757139" lon="8.406720">
        <ele>78.091931</ele>
        <time>2026-08-11T21:42:44.301Z</time>
      </trkpt>
      <trkpt lat="51.757415" lon="8.406435">
        <ele>78.182520</ele>
        <time>2026-08-11T21:42:51.665Z</time>
      </trkpt>
      <trkpt lat="51.757956" lon="8.406045">
        <ele>78.346355</ele>
        <time>2026-08-11T21:43:04.763Z</time>
      </trkpt>
      <trkpt lat="51.758657" lon="8.405896">
        <ele>78.459918</ele>
        <time>2026-08-11T21:43:20.241Z</time>
      </trkpt>
      <trkpt lat="51.758795" lon="8.405722">
        <ele>78.445765</ele>
        <time>2026-08-11T21:43:24.014Z</time>
      </trkpt>
      <trkpt lat="51.758927" lon="8.405448">
        <ele>78.428389</ele>
        <time>2026-08-11T21:43:28.659Z</time>
      </trkpt>
      <trkpt lat="51.759102" lon="8.405082">
        <ele>78.405245</ele>
        <time>2026-08-11T21:43:34.893Z</time>
      </trkpt>
      <trkpt lat="51.759523" lon="8.404179">
        <ele>78.348671</ele>
        <time>2026-08-11T21:43:50.265Z</time>
      </trkpt>
      <trkpt lat="51.759665" lon="8.404262">
        <ele>78.336462</ele>
        <time>2026-08-11T21:43:53.556Z</time>
      </trkpt>
      <trkpt lat="51.759719" lon="8.404343">
        <ele>78.326775</ele>
        <time>2026-08-11T21:43:55.150Z</time>
      </trkpt>
      <trkpt lat="51.759886" lon="8.404435">
        <ele>78.291534</ele>
        <time>2026-08-11T21:43:58.954Z</time>
      </trkpt>
      <trkpt lat="51.760016" lon="8.404456">
        <ele>78.265440</ele>
        <time>2026-08-11T21:44:01.761Z</time>
      </trkpt>
      <trkpt lat="51.760319" lon="8.404640">
        <ele>78.200788</ele>
        <time>2026-08-11T21:44:08.752Z</time>
      </trkpt>
      <trkpt lat="51.760377" lon="8.404727">
        <ele>78.184981</ele>
        <time>2026-08-11T21:44:10.447Z</time>
      </trkpt>
      <trkpt lat="51.760837" lon="8.404982">
        <ele>78.087848</ele>
        <time>2026-08-11T21:44:20.917Z</time>
      </trkpt>
      <trkpt lat="51.761125" lon="8.403396">
        <ele>77.779455</ele>
        <time>2026-08-11T21:44:42.049Z</time>
      </trkpt>
      <trkpt lat="51.761183" lon="8.403055">
        <ele>77.685344</ele>
        <time>2026-08-11T21:44:46.555Z</time>
      </trkpt>
      <trkpt lat="51.761363" lon="8.402088">
        <ele>77.416620</ele>
        <time>2026-08-11T21:44:59.085Z</time>
      </trkpt>
      <trkpt lat="51.761552" lon="8.401125">
        <ele>77.156259</ele>
        <time>2026-08-11T21:45:11.574Z</time>
      </trkpt>
      <trkpt lat="51.761609" lon="8.400988">
        <ele>77.119406</ele>
        <time>2026-08-11T21:45:13.700Z</time>
      </trkpt>
      <trkpt lat="51.762926" lon="8.402644">
        <ele>76.530008</ele>
        <time>2026-08-11T21:45:47.935Z</time>
      </trkpt>
      <trkpt lat="51.764212" lon="8.400700">
        <ele>76.118741</ele>
        <time>2026-08-11T21:46:24.462Z</time>
      </trkpt>
      <trkpt lat="51.764910" lon="8.399633">
        <ele>75.749183</ele>
        <time>2026-08-11T21:46:43.841Z</time>
      </trkpt>
      <trkpt lat="51.764975" lon="8.399496">
        <ele>75.708094</ele>
        <time>2026-08-11T21:46:45.995Z</time>
      </trkpt>
      <trkpt lat="51.765006" lon="8.399354">
        <ele>75.672252</ele>
        <time>2026-08-11T21:46:47.875Z</time>
      </trkpt>
      <trkpt lat="51.765039" lon="8.398529">
        <ele>75.475470</ele>
        <time>2026-08-11T21:46:58.300Z</time>
      </trkpt>
      <trkpt lat="51.765091" lon="8.398365">
        <ele>75.447084</ele>
        <time>2026-08-11T21:47:00.659Z</time>
      </trkpt>
      <trkpt lat="51.765631" lon="8.397514">
        <ele>75.414873</ele>
        <time>2026-08-11T21:47:16.492Z</time>
      </trkpt>
      <trkpt lat="51.765824" lon="8.397386">
        <ele>75.405964</ele>
        <time>2026-08-11T21:47:20.915Z</time>
      </trkpt>
      <trkpt lat="51.767932" lon="8.396377">
        <ele>75.498628</ele>
        <time>2026-08-11T21:48:07.555Z</time>
      </trkpt>
      <trkpt lat="51.768095" lon="8.397010">
        <ele>75.531426</ele>
        <time>2026-08-11T21:48:16.580Z</time>
      </trkpt>
      <trkpt lat="51.768282" lon="8.397355">
        <ele>75.512368</ele>
        <time>2026-08-11T21:48:22.612Z</time>
      </trkpt>
      <trkpt lat="51.768894" lon="8.398185">
        <ele>75.458717</ele>
        <time>2026-08-11T21:48:39.475Z</time>
      </trkpt>
      <trkpt lat="51.769059" lon="8.398575">
        <ele>75.439085</ele>
        <time>2026-08-11T21:48:45.557Z</time>
      </trkpt>
      <trkpt lat="51.769086" lon="8.398553">
        <ele>75.437054</ele>
        <time>2026-08-11T21:48:46.175Z</time>
      </trkpt>
      <trkpt lat="51.769194" lon="8.398462">
        <ele>75.428876</ele>
        <time>2026-08-11T21:48:48.690Z</time>
      </trkpt>
      <trkpt lat="51.769298" lon="8.398429">
        <ele>75.421759</ele>
        <time>2026-08-11T21:48:50.873Z</time>
      </trkpt>
      <trkpt lat="51.770397" lon="8.398554">
        <ele>75.245992</ele>
        <time>2026-08-11T21:49:13.498Z</time>
      </trkpt>
      <trkpt lat="51.770877" lon="8.398825">
        <ele>75.158495</ele>
        <time>2026-08-11T21:49:24.042Z</time>
      </trkpt>
      <trkpt lat="51.770979" lon="8.398953">
        <ele>75.136272</ele>
        <time>2026-08-11T21:49:26.755Z</time>
      </trkpt>
      <trkpt lat="51.772500" lon="8.403048">
        <ele>75.649365</ele>
        <time>2026-08-11T21:50:30.074Z</time>
      </trkpt>
      <trkpt lat="51.772575" lon="8.403104">
        <ele>75.670361</ele>
        <time>2026-08-11T21:50:31.854Z</time>
      </trkpt>
      <trkpt lat="51.772675" lon="8.403043">
        <ele>75.697524</ele>
        <time>2026-08-11T21:50:34.164Z</time>
      </trkpt>
      <trkpt lat="51.772847" lon="8.402869">
        <ele>75.749092</ele>
        <time>2026-08-11T21:50:38.565Z</time>
      </trkpt>
      <trkpt lat="51.773762" lon="8.401715">
        <ele>76.050209</ele>
        <time>2026-08-11T21:51:03.722Z</time>
      </trkpt>
      <trkpt lat="51.773775" lon="8.401697">
        <ele>76.054706</ele>
        <time>2026-08-11T21:51:04.096Z</time>
      </trkpt>
      <trkpt lat="51.773870" lon="8.401983">
        <ele>76.107467</ele>
        <time>2026-08-11T21:51:08.437Z</time>
      </trkpt>
      <trkpt lat="51.773775" lon="8.401697">
        <ele>76.160227</ele>
        <time>2026-08-11T21:51:12.762Z</time>
      </trkpt>
      <trkpt lat="51.774969" lon="8.400191">
        <ele>76.412647</ele>
        <time>2026-08-11T21:51:45.185Z</time>
      </trkpt>
      <trkpt lat="51.775053" lon="8.400149">
        <ele>76.420786</ele>
        <time>2026-08-11T21:51:47.064Z</time>
      </trkpt>
      <trkpt lat="51.775332" lon="8.401794">
        <ele>76.498424</ele>
        <time>2026-08-11T21:52:09.337Z</time>
      </trkpt>
      <trkpt lat="51.775501" lon="8.402444">
        <ele>76.494973</ele>
        <time>2026-08-11T21:52:18.533Z</time>
      </trkpt>
      <trkpt lat="51.776053" lon="8.404193">
        <ele>76.481600</ele>
        <time>2026-08-11T21:52:44.184Z</time>
      </trkpt>
      <trkpt lat="51.776066" lon="8.404231">
        <ele>76.479444</ele>
        <time>2026-08-11T21:52:44.748Z</time>
      </trkpt>
      <trkpt lat="51.776203" lon="8.404655">
        <ele>76.455691</ele>
        <time>2026-08-11T21:52:50.895Z</time>
      </trkpt>
      <trkpt lat="51.776704" lon="8.406192">
        <ele>76.369424</ele>
        <time>2026-08-11T21:53:13.184Z</time>
      </trkpt>
      <trkpt lat="51.778267" lon="8.411007">
        <ele>76.568564</ele>
        <time>2026-08-11T21:54:24.502Z</time>
      </trkpt>
      <trkpt lat="51.778306" lon="8.411298">
        <ele>76.589896</ele>
        <time>2026-08-11T21:54:28.434Z</time>
      </trkpt>
      <trkpt lat="51.778263" lon="8.411603">
        <ele>76.612308</ele>
        <time>2026-08-11T21:54:32.572Z</time>
      </trkpt>
      <trkpt lat="51.778846" lon="8.412005">
        <ele>76.818581</ele>
        <time>2026-08-11T21:54:46.196Z</time>
      </trkpt>
      <trkpt lat="51.779440" lon="8.412532">
        <ele>77.106603</ele>
        <time>2026-08-11T21:55:00.960Z</time>
      </trkpt>
      <trkpt lat="51.779989" lon="8.413060">
        <ele>77.378147</ele>
        <time>2026-08-11T21:55:15.036Z</time>
      </trkpt>
      <trkpt lat="51.780467" lon="8.413536">
        <ele>77.486661</ele>
        <time>2026-08-11T21:55:27.414Z</time>
      </trkpt>
      <trkpt lat="51.780568" lon="8.413534">
        <ele>77.503766</ele>
        <time>2026-08-11T21:55:29.626Z</time>
      </trkpt>
      <trkpt lat="51.780963" lon="8.413756">
        <ele>77.574586</ele>
        <time>2026-08-11T21:55:38.742Z</time>
      </trkpt>
      <trkpt lat="51.781359" lon="8.413871">
        <ele>77.642720</ele>
        <time>2026-08-11T21:55:47.181Z</time>
      </trkpt>
      <trkpt lat="51.781655" lon="8.413904">
        <ele>77.692965</ele>
        <time>2026-08-11T21:55:53.235Z</time>
      </trkpt>
      <trkpt lat="51.782043" lon="8.413876">
        <ele>77.582458</ele>
        <time>2026-08-11T21:56:01.139Z</time>
      </trkpt>
      <trkpt lat="51.782423" lon="8.413834">
        <ele>77.435070</ele>
        <time>2026-08-11T21:56:08.834Z</time>
      </trkpt>
      <trkpt lat="51.782567" lon="8.413820">
        <ele>77.379248</ele>
        <time>2026-08-11T21:56:11.756Z</time>
      </trkpt>
      <trkpt lat="51.783062" lon="8.413850">
        <ele>77.187569</ele>
        <time>2026-08-11T21:56:21.752Z</time>
      </trkpt>
      <trkpt lat="51.783428" lon="8.413966">
        <ele>77.043246</ele>
        <time>2026-08-11T21:56:29.340Z</time>
      </trkpt>
      <trkpt lat="51.783820" lon="8.414167">
        <ele>76.963022</ele>
        <time>2026-08-11T21:56:37.890Z</time>
      </trkpt>
      <trkpt lat="51.785040" lon="8.414770">
        <ele>76.781087</ele>
        <time>2026-08-11T21:57:04.276Z</time>
      </trkpt>
      <trkpt lat="51.785552" lon="8.415030">
        <ele>76.841062</ele>
        <time>2026-08-11T21:57:15.665Z</time>
      </trkpt>
      <trkpt lat="51.787432" lon="8.415985">
        <ele>77.317223</ele>
        <time>2026-08-11T21:57:58.531Z</time>
      </trkpt>
      <trkpt lat="51.787503" lon="8.416106">
        <ele>77.335878</ele>
        <time>2026-08-11T21:58:00.734Z</time>
      </trkpt>
      <trkpt lat="51.788521" lon="8.416614">
        <ele>77.528521</ele>
        <time>2026-08-11T21:58:23.391Z</time>
      </trkpt>
      <trkpt lat="51.788523" lon="8.416566">
        <ele>77.533902</ele>
        <time>2026-08-11T21:58:24.026Z</time>
      </trkpt>
      <trkpt lat="51.788205" lon="8.415435">
        <ele>77.464850</ele>
        <time>2026-08-11T21:58:40.187Z</time>
      </trkpt>
      <trkpt lat="51.788231" lon="8.415408">
        <ele>77.460942</ele>
        <time>2026-08-11T21:58:40.875Z</time>
      </trkpt>
      <trkpt lat="51.788213" lon="8.415127">
        <ele>77.438838</ele>
        <time>2026-08-11T21:58:44.696Z</time>
      </trkpt>
      <trkpt lat="51.788062" lon="8.412607">
        <ele>77.119868</ele>
        <time>2026-08-11T21:59:18.446Z</time>
      </trkpt>
      <trkpt lat="51.788056" lon="8.412494">
        <ele>77.097947</ele>
        <time>2026-08-11T21:59:19.928Z</time>
      </trkpt>
      <trkpt lat="51.788008" lon="8.411607">
        <ele>76.925852</ele>
        <time>2026-08-11T21:59:31.527Z</time>
      </trkpt>
      <trkpt lat="51.787945" lon="8.410202">
        <ele>76.752781</ele>
        <time>2026-08-11T21:59:50.142Z</time>
      </trkpt>
      <trkpt lat="51.789513" lon="8.409772">
        <ele>76.719440</ele>
        <time>2026-08-11T22:00:25.300Z</time>
      </trkpt>
      <trkpt lat="51.789664" lon="8.409773">
        <ele>76.720845</ele>
        <time>2026-08-11T22:00:28.647Z</time>
      </trkpt>
      <trkpt lat="51.789974" lon="8.409845">
        <ele>76.723758</ele>
        <time>2026-08-11T22:00:35.553Z</time>
      </trkpt>
      <trkpt lat="51.791727" lon="8.410544">
        <ele>76.724268</ele>
        <time>2026-08-11T22:01:15.048Z</time>
      </trkpt>
      <trkpt lat="51.791741" lon="8.410417">
        <ele>76.722867</ele>
        <time>2026-08-11T22:01:16.738Z</time>
      </trkpt>
      <trkpt lat="51.791798" lon="8.409974">
        <ele>76.717955</ele>
        <time>2026-08-11T22:01:22.648Z</time>
      </trkpt>
      <trkpt lat="51.791895" lon="8.409648">
        <ele>76.714027</ele>
        <time>2026-08-11T22:01:27.371Z</time>
      </trkpt>
      <trkpt lat="51.792053" lon="8.409423">
        <ele>76.710331</ele>
        <time>2026-08-11T22:01:31.830Z</time>
      </trkpt>
      <trkpt lat="51.792210" lon="8.409267">
        <ele>76.707097</ele>
        <time>2026-08-11T22:01:35.723Z</time>
      </trkpt>
      <trkpt lat="51.793127" lon="8.408341">
        <ele>76.534170</ele>
        <time>2026-08-11T22:01:58.226Z</time>
      </trkpt>
      <trkpt lat="51.793195" lon="8.408245">
        <ele>76.516560</ele>
        <time>2026-08-11T22:02:00.071Z</time>
      </trkpt>
      <trkpt lat="51.793533" lon="8.407512">
        <ele>76.406249</ele>
        <time>2026-08-11T22:02:11.655Z</time>
      </trkpt>
      <trkpt lat="51.793995" lon="8.406594">
        <ele>76.362844</ele>
        <time>2026-08-11T22:02:26.743Z</time>
      </trkpt>
      <trkpt lat="51.794101" lon="8.406494">
        <ele>76.365632</ele>
        <time>2026-08-11T22:02:29.277Z</time>
      </trkpt>
      <trkpt lat="51.797245" lon="8.406086">
        <ele>76.813614</ele>
        <time>2026-08-11T22:03:36.759Z</time>
      </trkpt>
      <trkpt lat="51.798687" lon="8.405910">
        <ele>77.452130</ele>
        <time>2026-08-11T22:04:08.689Z</time>
      </trkpt>
      <trkpt lat="51.799447" lon="8.405851">
        <ele>77.500902</ele>
        <time>2026-08-11T22:04:24.822Z</time>
      </trkpt>
      <trkpt lat="51.800554" lon="8.405540">
        <ele>77.404103</ele>
        <time>2026-08-11T22:04:47.921Z</time>
      </trkpt>
      <trkpt lat="51.800752" lon="8.405484">
        <ele>77.404135</ele>
        <time>2026-08-11T22:04:52.126Z</time>
      </trkpt>
      <trkpt lat="51.800799" lon="8.406238">
        <ele>77.479619</ele>
        <time>2026-08-11T22:05:02.064Z</time>
      </trkpt>
      <trkpt lat="51.800879" lon="8.406595">
        <ele>77.517441</ele>
        <time>2026-08-11T22:05:07.108Z</time>
      </trkpt>
      <trkpt lat="51.801401" lon="8.407983">
        <ele>77.679253</ele>
        <time>2026-08-11T22:05:28.831Z</time>
      </trkpt>
      <trkpt lat="51.801620" lon="8.408548">
        <ele>77.722091</ele>
        <time>2026-08-11T22:05:37.704Z</time>
      </trkpt>
      <trkpt lat="51.802162" lon="8.409952">
        <ele>77.825371</ele>
        <time>2026-08-11T22:05:59.535Z</time>
      </trkpt>
      <trkpt lat="51.802269" lon="8.410395">
        <ele>77.855047</ele>
        <time>2026-08-11T22:06:05.709Z</time>
      </trkpt>
      <trkpt lat="51.802383" lon="8.410959">
        <ele>77.865824</ele>
        <time>2026-08-11T22:06:13.338Z</time>
      </trkpt>
      <trkpt lat="51.802444" lon="8.411283">
        <ele>77.867169</ele>
        <time>2026-08-11T22:06:17.692Z</time>
      </trkpt>
      <trkpt lat="51.802616" lon="8.411875">
        <ele>77.869766</ele>
        <time>2026-08-11T22:06:26.215Z</time>
      </trkpt>
      <trkpt lat="51.802833" lon="8.412351">
        <ele>77.872115</ele>
        <time>2026-08-11T22:06:33.981Z</time>
      </trkpt>
      <trkpt lat="51.803385" lon="8.413557">
        <ele>77.761566</ele>
        <time>2026-08-11T22:06:53.528Z</time>
      </trkpt>
      <trkpt lat="51.803534" lon="8.413461">
        <ele>77.714257</ele>
        <time>2026-08-11T22:06:56.906Z</time>
      </trkpt>
      <trkpt lat="51.804397" lon="8.412853">
        <ele>77.436599</ele>
        <time>2026-08-11T22:07:16.179Z</time>
      </trkpt>
      <trkpt lat="51.805015" lon="8.412403">
        <ele>77.288014</ele>
        <time>2026-08-11T22:07:29.765Z</time>
      </trkpt>
      <trkpt lat="51.805289" lon="8.412272">
        <ele>77.243652</ele>
        <time>2026-08-11T22:07:35.541Z</time>
      </trkpt>
      <trkpt lat="51.805508" lon="8.412359">
        <ele>77.208639</ele>
        <time>2026-08-11T22:07:40.112Z</time>
      </trkpt>
      <trkpt lat="51.805689" lon="8.412518">
        <ele>77.176658</ele>
        <time>2026-08-11T22:07:44.385Z</time>
      </trkpt>
      <trkpt lat="51.805820" lon="8.412259">
        <ele>77.144534</ele>
        <time>2026-08-11T22:07:48.728Z</time>
      </trkpt>
      <trkpt lat="51.805860" lon="8.412231">
        <ele>77.137766</ele>
        <time>2026-08-11T22:07:49.651Z</time>
      </trkpt>
      <trkpt lat="51.806054" lon="8.411895">
        <ele>77.093632</ele>
        <time>2026-08-11T22:07:55.795Z</time>
      </trkpt>
      <trkpt lat="51.806247" lon="8.411588">
        <ele>77.072293</ele>
        <time>2026-08-11T22:08:01.683Z</time>
      </trkpt>
      <trkpt lat="51.806968" lon="8.410734">
        <ele>77.135798</ele>
        <time>2026-08-11T22:08:21.137Z</time>
      </trkpt>
      <trkpt lat="51.807200" lon="8.410303">
        <ele>77.160906</ele>
        <time>2026-08-11T22:08:28.661Z</time>
      </trkpt>
      <trkpt lat="51.807279" lon="8.410426">
        <ele>77.168698</ele>
        <time>2026-08-11T22:08:30.956Z</time>
      </trkpt>
      <trkpt lat="51.807713" lon="8.410974">
        <ele>77.068204</ele>
        <time>2026-08-11T22:08:42.158Z</time>
      </trkpt>
      <trkpt lat="51.808138" lon="8.411377">
        <ele>76.759380</ele>
        <time>2026-08-11T22:08:51.884Z</time>
      </trkpt>
      <trkpt lat="51.808617" lon="8.411612">
        <ele>76.445607</ele>
        <time>2026-08-11T22:09:01.689Z</time>
      </trkpt>
      <trkpt lat="51.808856" lon="8.411685">
        <ele>76.293142</ele>
        <time>2026-08-11T22:09:06.492Z</time>
      </trkpt>
      <trkpt lat="51.809123" lon="8.411731">
        <ele>76.124825</ele>
        <time>2026-08-11T22:09:11.824Z</time>
      </trkpt>
      <trkpt lat="51.809471" lon="8.411734">
        <ele>76.028491</ele>
        <time>2026-08-11T22:09:18.870Z</time>
      </trkpt>
      <trkpt lat="51.809739" lon="8.411724">
        <ele>75.988828</ele>
        <time>2026-08-11T22:09:24.387Z</time>
      </trkpt>
      <trkpt lat="51.809824" lon="8.411689">
        <ele>75.975850</ele>
        <time>2026-08-11T22:09:26.218Z</time>
      </trkpt>
      <trkpt lat="51.810010" lon="8.411694">
        <ele>75.948326</ele>
        <time>2026-08-11T22:09:30.086Z</time>
      </trkpt>
      <trkpt lat="51.811255" lon="8.411204">
        <ele>75.876126</ele>
        <time>2026-08-11T22:09:57.056Z</time>
      </trkpt>
      <trkpt lat="51.811499" lon="8.411124">
        <ele>75.944088</ele>
        <time>2026-08-11T22:10:02.345Z</time>
      </trkpt>
      <trkpt lat="51.811884" lon="8.411145">
        <ele>76.049246</ele>
        <time>2026-08-11T22:10:10.612Z</time>
      </trkpt>
      <trkpt lat="51.811867" lon="8.411281">
        <ele>76.072663</ele>
        <time>2026-08-11T22:10:12.449Z</time>
      </trkpt>
      <trkpt lat="51.811589" lon="8.412995">
        <ele>76.407425</ele>
        <time>2026-08-11T22:10:38.739Z</time>
      </trkpt>
      <trkpt lat="51.811448" lon="8.414077">
        <ele>76.676583</ele>
        <time>2026-08-11T22:10:55.328Z</time>
      </trkpt>
      <trkpt lat="51.811433" lon="8.414470">
        <ele>76.772426</ele>
        <time>2026-08-11T22:11:01.178Z</time>
      </trkpt>
      <trkpt lat="51.811447" lon="8.415247">
        <ele>76.961638</ele>
        <time>2026-08-11T22:11:12.518Z</time>
      </trkpt>
      <trkpt lat="51.811491" lon="8.415680">
        <ele>76.941261</ele>
        <time>2026-08-11T22:11:18.815Z</time>
      </trkpt>
      <trkpt lat="51.811653" lon="8.416479">
        <ele>76.770315</ele>
        <time>2026-08-11T22:11:30.699Z</time>
      </trkpt>
      <trkpt lat="51.811944" lon="8.417755">
        <ele>76.493823</ele>
        <time>2026-08-11T22:11:49.738Z</time>
      </trkpt>
      <trkpt lat="51.811969" lon="8.418216">
        <ele>76.402851</ele>
        <time>2026-08-11T22:11:56.249Z</time>
      </trkpt>
      <trkpt lat="51.811961" lon="8.418947">
        <ele>76.312243</ele>
        <time>2026-08-11T22:12:06.540Z</time>
      </trkpt>
      <trkpt lat="51.811919" lon="8.419306">
        <ele>76.266962</ele>
        <time>2026-08-11T22:12:11.671Z</time>
      </trkpt>
      <trkpt lat="51.812168" lon="8.419371">
        <ele>76.216402</ele>
        <time>2026-08-11T22:12:20.419Z</time>
      </trkpt>
      <trkpt lat="51.812802" lon="8.419156">
        <ele>76.086549</ele>
        <time>2026-08-11T22:12:35.345Z</time>
      </trkpt>
      <trkpt lat="51.812830" lon="8.419353">
        <ele>76.061498</ele>
        <time>2026-08-11T22:12:37.977Z</time>
      </trkpt>
      <trkpt lat="51.813032" lon="8.420934">
        <ele>76.511049</ele>
        <time>2026-08-11T22:13:05.729Z</time>
      </trkpt>
      <trkpt lat="51.813039" lon="8.420992">
        <ele>76.529341</ele>
        <time>2026-08-11T22:13:06.740Z</time>
      </trkpt>
      <trkpt lat="51.813098" lon="8.421476">
        <ele>76.682045</ele>
        <time>2026-08-11T22:13:13.587Z</time>
      </trkpt>
      <trkpt lat="51.813125" lon="8.421546">
        <ele>76.707584</ele>
        <time>2026-08-11T22:13:14.721Z</time>
      </trkpt>
      <trkpt lat="51.813209" lon="8.421631">
        <ele>76.757195</ele>
        <time>2026-08-11T22:13:16.945Z</time>
      </trkpt>
      <trkpt lat="51.813302" lon="8.421725">
        <ele>76.812103</ele>
        <time>2026-08-11T22:13:19.395Z</time>
      </trkpt>
      <trkpt lat="51.813571" lon="8.422439">
        <ele>76.988509</ele>
        <time>2026-08-11T22:13:30.825Z</time>
      </trkpt>
      <trkpt lat="51.813629" lon="8.422501">
        <ele>77.000033</ele>
        <time>2026-08-11T22:13:32.349Z</time>
      </trkpt>
      <trkpt lat="51.813728" lon="8.422203">
        <ele>77.034702</ele>
        <time>2026-08-11T22:13:36.885Z</time>
      </trkpt>
      <trkpt lat="51.813775" lon="8.422237">
        <ele>77.043236</ele>
        <time>2026-08-11T22:13:37.981Z</time>
      </trkpt>
      <trkpt lat="51.813916" lon="8.422264">
        <ele>77.066772</ele>
        <time>2026-08-11T22:13:41.051Z</time>
      </trkpt>
      <trkpt lat="51.814278" lon="8.422148">
        <ele>77.127944</ele>
        <time>2026-08-11T22:13:48.919Z</time>
      </trkpt>
      <trkpt lat="51.814866" lon="8.422181">
        <ele>77.225472</ele>
        <time>2026-08-11T22:14:01.185Z</time>
      </trkpt>
      <trkpt lat="51.815491" lon="8.422219">
        <ele>77.280682</ele>
        <time>2026-08-11T22:14:14.055Z</time>
      </trkpt>
      <trkpt lat="51.815806" lon="8.422249">
        <ele>77.302547</ele>
        <time>2026-08-11T22:14:20.674Z</time>
      </trkpt>
      <trkpt lat="51.816385" lon="8.422296">
        <ele>77.342719</ele>
        <time>2026-08-11T22:14:33.138Z</time>
      </trkpt>
      <trkpt lat="51.816393" lon="8.422456">
        <ele>77.349595</ele>
        <time>2026-08-11T22:14:35.270Z</time>
      </trkpt>
      <trkpt lat="51.816426" lon="8.422586">
        <ele>77.355615</ele>
        <time>2026-08-11T22:14:37.132Z</time>
      </trkpt>
      <trkpt lat="51.816770" lon="8.423500">
        <ele>77.403465</ele>
        <time>2026-08-11T22:14:51.383Z</time>
      </trkpt>
      <trkpt lat="51.817216" lon="8.424557">
        <ele>77.461850</ele>
        <time>2026-08-11T22:15:08.380Z</time>
      </trkpt>
      <trkpt lat="51.817402" lon="8.424998">
        <ele>77.486206</ele>
        <time>2026-08-11T22:15:15.264Z</time>
      </trkpt>
      <trkpt lat="51.817543" lon="8.425209">
        <ele>77.500382</ele>
        <time>2026-08-11T22:15:19.225Z</time>
      </trkpt>
      <trkpt lat="51.817935" lon="8.425605">
        <ele>77.447503</ele>
        <time>2026-08-11T22:15:28.699Z</time>
      </trkpt>
      <trkpt lat="51.818076" lon="8.425716">
        <ele>77.426855</ele>
        <time>2026-08-11T22:15:34.156Z</time>
      </trkpt>
      <trkpt lat="51.818464" lon="8.425882">
        <ele>77.374009</ele>
        <time>2026-08-11T22:15:48.060Z</time>
      </trkpt>
      <trkpt lat="51.818729" lon="8.426147">
        <ele>77.332987</ele>
        <time>2026-08-11T22:15:58.840Z</time>
      </trkpt>
      <trkpt lat="51.818910" lon="8.426242">
        <ele>77.307931</ele>
        <time>2026-08-11T22:16:05.402Z</time>
      </trkpt>
      <trkpt lat="51.819292" lon="8.426371">
        <ele>77.290275</ele>
        <time>2026-08-11T22:16:18.905Z</time>
      </trkpt>
      <trkpt lat="51.818892" lon="8.427613">
        <ele>77.566033</ele>
        <time>2026-08-11T22:16:48.762Z</time>
      </trkpt>
      <trkpt lat="51.818774" lon="8.428103">
        <ele>77.669580</ele>
        <time>2026-08-11T22:16:59.938Z</time>
      </trkpt>
      <trkpt lat="51.818647" lon="8.428769">
        <ele>77.806818</ele>
        <time>2026-08-11T22:17:14.773Z</time>
      </trkpt>
      <trkpt lat="51.818488" lon="8.429866">
        <ele>77.839353</ele>
        <time>2026-08-11T22:17:38.752Z</time>
      </trkpt>
      <trkpt lat="51.818332" lon="8.429853">
        <ele>77.839353</ele>
        <time>2026-08-11T22:17:43.062Z</time>
      </trkpt>
      <trkpt lat="51.818331" lon="8.429951">
        <ele>77.839353</ele>
        <time>2026-08-11T22:17:44.734Z</time>
      </trkpt>
      <trkpt lat="51.818329" lon="8.430039">
        <ele>77.839353</ele>
        <time>2026-08-11T22:17:45.920Z</time>
      </trkpt>
      <trkpt lat="51.818384" lon="8.430046">
        <ele>77.839353</ele>
        <time>2026-08-11T22:17:47.431Z</time>
      </trkpt>
      <trkpt lat="51.818379" lon="8.430310">
        <ele>77.839353</ele>
        <time>2026-08-11T22:17:50.947Z</time>
      </trkpt>
      <trkpt lat="51.818329" lon="8.430666">
        <ele>77.839353</ele>
        <time>2026-08-11T22:17:55.787Z</time>
      </trkpt>
    </trkseg>
  </trk>
</gpx>